createdAt,value
2018-07-11T00:01:56.053Z,9.43
2018-07-11T00:04:24.696Z,9.30
2018-07-11T00:06:52.799Z,9.40
2018-07-11T00:09:21.996Z,8.77
2018-07-11T00:11:50.460Z,10.17
2018-07-11T00:14:18.543Z,9.87
2018-07-11T00:16:52.132Z,11.00
2018-07-11T00:19:21.695Z,9.65
2018-07-11T00:21:50.019Z,10.63
2018-07-11T00:24:18.684Z,9.80
2018-07-11T00:26:47.035Z,10.27
2018-07-11T00:29:15.604Z,10.60
2018-07-11T00:31:43.943Z,9.67
2018-07-11T00:34:12.528Z,12.13
2018-07-11T00:36:41.373Z,10.93
2018-07-11T00:39:09.720Z,10.13
2018-07-11T00:41:38.093Z,10.32
2018-07-11T00:44:06.617Z,9.80
2018-07-11T00:46:34.955Z,10.00
2018-07-11T00:49:03.595Z,9.73
2018-07-11T00:51:31.924Z,10.28
2018-07-11T00:54:00.280Z,9.73
2018-07-11T00:56:28.819Z,10.40
2018-07-11T00:59:03.231Z,9.47
2018-07-11T01:01:31.927Z,10.10
2018-07-11T01:04:01.213Z,12.93
2018-07-11T01:06:30.070Z,12.25
2018-07-11T01:08:59.240Z,12.27
2018-07-11T01:11:32.260Z,12.60
2018-07-11T01:14:00.452Z,12.13
2018-07-11T01:16:29.641Z,11.80
2018-07-11T01:19:00.030Z,12.13
2018-07-11T01:21:29.580Z,12.23
2018-07-11T01:23:58.016Z,11.77
2018-07-11T01:26:28.065Z,12.90
2018-07-11T01:28:56.871Z,13.17
2018-07-11T01:31:26.124Z,13.83
2018-07-11T01:33:54.859Z,10.67
2018-07-11T01:36:23.728Z,11.73
2018-07-11T01:38:52.301Z,13.43
2018-07-11T01:41:22.259Z,13.18
2018-07-11T01:43:51.278Z,10.53
2018-07-11T01:46:19.513Z,9.87
2018-07-11T01:48:47.928Z,10.33
2018-07-11T01:51:16.267Z,11.30
2018-07-11T01:53:44.870Z,12.40
2018-07-11T01:56:13.744Z,11.70
2018-07-11T01:58:44.010Z,12.50
2018-07-11T02:01:12.728Z,14.73
2018-07-11T02:03:41.121Z,13.13
2018-07-11T02:06:09.743Z,15.15
2018-07-11T02:08:38.321Z,14.10
2018-07-11T02:11:06.636Z,13.80
2018-07-11T02:13:35.160Z,13.70
2018-07-11T02:16:03.531Z,12.70
2018-07-11T02:18:31.848Z,17.45
2018-07-11T02:21:00.228Z,13.37
2018-07-11T02:23:38.835Z,12.28
2018-07-11T02:26:07.206Z,12.60
2018-07-11T02:28:36.111Z,13.48
2018-07-11T02:31:04.508Z,11.30
2018-07-11T02:33:33.160Z,12.93
2018-07-11T02:36:01.951Z,12.80
2018-07-11T02:38:30.541Z,12.47
2018-07-11T02:40:58.933Z,12.63
2018-07-11T02:43:27.573Z,13.40
2018-07-11T02:45:55.921Z,12.17
2018-07-11T02:48:24.300Z,13.70
2018-07-11T02:50:52.957Z,12.25
2018-07-11T02:53:23.823Z,12.93
2018-07-11T02:55:52.880Z,12.00
2018-07-11T02:58:22.126Z,18.20
2018-07-11T03:00:51.036Z,19.37
2018-07-11T03:03:19.345Z,15.27
2018-07-11T03:05:47.803Z,11.97
2018-07-11T03:08:16.963Z,12.30
2018-07-11T03:10:46.238Z,14.30
2018-07-11T03:13:16.040Z,16.40
2018-07-11T03:15:44.472Z,15.00
2018-07-11T03:18:13.136Z,17.67
2018-07-11T03:20:41.295Z,11.27
2018-07-11T03:23:10.093Z,12.77
2018-07-11T03:25:38.484Z,13.70
2018-07-11T03:28:07.249Z,12.07
2018-07-11T03:30:35.980Z,14.00
2018-07-11T03:33:04.416Z,15.57
2018-07-11T03:35:32.837Z,14.28
2018-07-11T03:38:01.168Z,11.60
2018-07-11T03:40:29.888Z,12.50
2018-07-11T03:42:58.650Z,12.13
2018-07-11T03:45:27.136Z,13.90
2018-07-11T03:47:55.288Z,12.73
2018-07-11T03:50:24.042Z,15.60
2018-07-11T03:52:52.375Z,15.60
2018-07-11T03:55:20.480Z,15.70
2018-07-11T03:57:49.292Z,16.63
2018-07-11T04:00:17.416Z,15.47
2018-07-11T04:02:45.831Z,13.80
2018-07-11T04:05:14.001Z,15.10
2018-07-11T04:07:42.680Z,14.83
2018-07-11T04:10:11.347Z,11.73
2018-07-11T04:12:39.570Z,14.50
2018-07-11T04:15:07.952Z,11.80
2018-07-11T04:17:36.181Z,16.93
2018-07-11T04:20:04.285Z,14.10
2018-07-11T04:22:32.732Z,12.43
2018-07-11T04:25:01.024Z,20.63
2018-07-11T04:27:29.285Z,16.33
2018-07-11T04:29:57.648Z,13.83
2018-07-11T04:32:26.451Z,13.48
2018-07-11T04:34:55.056Z,15.20
2018-07-11T04:37:23.603Z,15.60
2018-07-11T04:39:52.264Z,10.70
2018-07-11T04:52:05.584Z,16.27
2018-07-11T04:54:34.263Z,12.93
2018-07-11T04:57:02.629Z,15.20
2018-07-11T04:59:31.375Z,12.15
2018-07-11T05:01:59.715Z,13.10
2018-07-11T05:04:28.564Z,11.87
2018-07-11T05:06:57.322Z,16.90
2018-07-11T05:09:25.760Z,14.27
2018-07-11T05:11:53.995Z,13.73
2018-07-11T05:14:22.380Z,11.97
2018-07-11T05:16:50.975Z,14.78
2018-07-11T05:19:19.403Z,17.00
2018-07-11T05:21:47.852Z,15.40
2018-07-11T05:24:16.372Z,12.27
2018-07-11T05:26:44.815Z,13.10
2018-07-11T05:29:13.905Z,11.83
2018-07-11T05:31:42.216Z,17.67
2018-07-11T05:34:16.117Z,13.73
2018-07-11T05:36:44.220Z,12.40
2018-07-11T05:39:12.331Z,12.47
2018-07-11T05:41:41.049Z,14.80
2018-07-11T05:44:09.695Z,15.50
2018-07-11T05:46:38.552Z,18.48
2018-07-11T05:49:06.990Z,14.17
2018-07-11T05:51:35.749Z,13.53
2018-07-11T05:54:03.842Z,13.70
2018-07-11T05:56:32.900Z,17.62
2018-07-11T05:59:01.619Z,13.77
2018-07-11T06:01:30.096Z,14.73
2018-07-11T06:03:58.358Z,16.30
2018-07-11T06:06:26.677Z,18.83
2018-07-11T06:08:55.101Z,15.17
2018-07-11T06:11:25.049Z,17.13
2018-07-11T06:13:54.179Z,15.70
2018-07-11T06:16:23.370Z,22.43
2018-07-11T06:18:51.649Z,22.37
2018-07-11T06:21:22.790Z,16.20
2018-07-11T06:23:51.936Z,18.80
2018-07-11T06:26:20.359Z,17.53
2018-07-11T06:28:48.826Z,19.73
2018-07-11T06:31:17.028Z,16.97
2018-07-11T06:33:45.752Z,15.73
2018-07-11T06:36:14.316Z,19.07
2018-07-11T06:38:42.407Z,19.83
2018-07-11T06:41:10.861Z,17.03
2018-07-11T06:43:38.971Z,18.10
2018-07-11T06:46:07.853Z,19.97
2018-07-11T06:48:36.327Z,23.83
2018-07-11T06:51:05.196Z,18.10
2018-07-11T06:53:33.944Z,21.42
2018-07-11T06:56:02.660Z,17.67
2018-07-11T06:58:30.936Z,21.57
2018-07-11T07:00:59.353Z,23.83
2018-07-11T07:03:28.112Z,22.30
2018-07-11T07:05:57.020Z,19.50
2018-07-11T07:08:25.755Z,19.50
2018-07-11T07:10:53.844Z,18.20
2018-07-11T07:13:23.259Z,20.60
2018-07-11T07:15:51.793Z,22.77
2018-07-11T07:18:19.926Z,18.30
2018-07-11T07:20:48.350Z,20.73
2018-07-11T07:23:17.012Z,17.80
2018-07-11T07:25:45.721Z,21.30
2018-07-11T07:28:13.872Z,19.53
2018-07-11T07:30:41.956Z,19.53
2018-07-11T07:33:10.421Z,18.77
2018-07-11T07:35:39.116Z,24.83
2018-07-11T07:38:07.843Z,18.82
2018-07-11T07:40:36.389Z,19.02
2018-07-11T07:43:05.328Z,17.07
2018-07-11T07:45:33.992Z,22.10
2018-07-11T07:48:02.178Z,17.63
2018-07-11T07:50:31.004Z,17.32
2018-07-11T07:53:00.149Z,16.33
2018-07-11T07:55:28.697Z,20.20
2018-07-11T07:57:57.043Z,24.10
2018-07-11T08:00:25.136Z,23.67
2018-07-11T08:02:53.534Z,18.47
2018-07-11T08:05:23.044Z,19.65
2018-07-11T08:07:51.557Z,19.00
2018-07-11T08:10:20.159Z,21.60
2018-07-11T08:12:48.883Z,19.82
2018-07-11T08:15:17.192Z,24.17
2018-07-11T08:17:45.931Z,21.48
2018-07-11T08:20:14.359Z,20.10
2018-07-11T08:23:23.152Z,24.90
2018-07-11T08:26:03.669Z,20.23
2018-07-11T08:29:43.585Z,18.98
2018-07-11T08:32:54.456Z,20.60
2018-07-11T08:35:34.430Z,25.33
2018-07-11T08:40:29.338Z,25.03
2018-07-11T08:45:13.674Z,23.12
2018-07-11T08:52:03.620Z,25.90
2018-07-11T08:54:43.303Z,24.05
2018-07-11T08:57:23.120Z,23.40
2018-07-11T09:00:05.753Z,31.67
2018-07-11T09:05:16.860Z,26.40
2018-07-11T09:07:55.280Z,23.77
2018-07-11T09:11:40.312Z,28.10
2018-07-11T09:14:21.044Z,31.03
2018-07-11T09:17:07.760Z,25.90
2018-07-11T09:19:47.451Z,32.10
2018-07-11T09:22:24.983Z,25.87
2018-07-11T09:24:53.636Z,25.53
2018-07-11T09:27:23.545Z,30.88
2018-07-11T09:29:52.792Z,27.43
2018-07-11T09:32:20.916Z,28.17
2018-07-11T09:34:49.603Z,27.47
2018-07-11T09:37:18.388Z,29.07
2018-07-11T09:39:46.724Z,27.03
2018-07-11T09:42:15.167Z,28.43
2018-07-11T09:44:43.812Z,32.27
2018-07-11T09:47:17.488Z,29.43
2018-07-11T09:49:45.914Z,31.37
2018-07-11T09:52:14.051Z,31.87
2018-07-11T09:54:42.343Z,29.10
2018-07-11T09:57:11.108Z,29.90
2018-07-11T09:59:39.739Z,24.70
2018-07-11T10:02:07.996Z,25.53
2018-07-11T10:04:36.888Z,28.70
2018-07-11T10:07:05.668Z,25.23
2018-07-11T10:09:34.764Z,27.15
2018-07-11T10:12:03.196Z,28.67
2018-07-11T10:14:31.471Z,29.77
2018-07-11T10:17:00.159Z,29.57
2018-07-11T10:19:28.285Z,30.57
2018-07-11T10:21:56.392Z,35.17
2018-07-11T10:24:25.123Z,31.80
2018-07-11T10:26:53.979Z,29.90
2018-07-11T10:29:23.549Z,27.35
2018-07-11T10:31:52.488Z,29.33
2018-07-11T10:34:20.837Z,30.50
2018-07-11T10:36:48.968Z,31.50
2018-07-11T10:39:17.224Z,29.30
2018-07-11T10:41:45.676Z,32.93
2018-07-11T10:44:14.171Z,33.33
2018-07-11T10:46:42.592Z,34.90
2018-07-11T10:49:11.623Z,37.40
2018-07-11T10:51:39.738Z,39.85
2018-07-11T10:54:08.260Z,32.87
2018-07-11T10:56:36.451Z,29.97
2018-07-11T10:59:05.075Z,34.43
2018-07-11T11:01:33.490Z,31.50
2018-07-11T11:04:02.579Z,27.98
2018-07-11T11:06:31.748Z,28.45
2018-07-11T11:09:00.385Z,28.23
2018-07-11T11:11:29.076Z,27.00
2018-07-11T11:13:57.633Z,24.77
2018-07-11T11:16:26.463Z,26.47
2018-07-11T11:18:54.559Z,23.53
2018-07-11T11:21:23.706Z,22.58
2018-07-11T11:23:52.036Z,20.13
2018-07-11T11:26:20.402Z,20.40
2018-07-11T11:28:48.597Z,16.37
2018-07-11T11:31:17.011Z,13.57
2018-07-11T11:33:45.380Z,12.30
2018-07-11T11:36:13.924Z,10.97
2018-07-11T11:38:42.887Z,9.90
2018-07-11T11:41:11.396Z,9.73
2018-07-11T11:43:40.104Z,10.58
2018-07-11T11:46:08.577Z,9.27
2018-07-11T11:48:37.279Z,8.93
2018-07-11T11:51:05.432Z,6.73
2018-07-11T11:53:33.547Z,6.67
2018-07-11T11:56:01.889Z,6.77
2018-07-11T11:58:30.504Z,6.80
2018-07-11T12:00:58.875Z,6.90
2018-07-11T12:03:27.708Z,7.62
2018-07-11T12:05:55.867Z,7.17
2018-07-11T12:08:24.623Z,9.07
2018-07-11T12:10:52.952Z,7.77
2018-07-11T12:13:21.556Z,10.30
2018-07-11T12:15:50.008Z,12.47
2018-07-11T12:18:18.715Z,12.57
2018-07-11T12:20:47.068Z,12.27
2018-07-11T12:23:15.260Z,10.20
2018-07-11T12:25:54.395Z,10.20
2018-07-11T12:28:23.836Z,10.00
2018-07-11T12:30:51.953Z,11.07
2018-07-11T12:33:20.603Z,12.20
2018-07-11T12:35:48.725Z,13.33
2018-07-11T12:38:17.072Z,11.37
2018-07-11T12:40:45.304Z,11.60
2018-07-11T12:43:13.656Z,12.37
2018-07-11T12:45:42.099Z,13.23
2018-07-11T12:48:15.821Z,14.70
2018-07-11T12:50:43.952Z,14.10
2018-07-11T12:53:12.361Z,14.50
2018-07-11T12:55:40.775Z,12.93
2018-07-11T12:58:09.202Z,16.23
2018-07-11T13:00:38.080Z,15.33
2018-07-11T13:03:06.420Z,17.03
2018-07-11T13:05:34.863Z,18.77
2018-07-11T13:08:03.208Z,19.70
2018-07-11T13:10:31.734Z,17.80
2018-07-11T13:13:00.408Z,17.60
2018-07-11T13:15:29.080Z,17.57
2018-07-11T13:17:57.804Z,19.10
2018-07-11T13:20:26.496Z,16.30
2018-07-11T13:22:54.877Z,15.60
2018-07-11T13:25:24.206Z,16.82
2018-07-11T13:27:53.728Z,16.70
2018-07-11T13:30:22.483Z,16.13
2018-07-11T13:32:50.600Z,15.13
2018-07-11T13:35:18.940Z,14.40
2018-07-11T13:37:47.399Z,10.83
2018-07-11T13:40:15.498Z,12.23
2018-07-11T13:42:43.788Z,13.43
2018-07-11T13:45:12.243Z,13.20
2018-07-11T13:47:40.652Z,10.47
2018-07-11T13:50:08.740Z,10.63
2018-07-11T13:52:37.095Z,9.97
2018-07-11T13:55:05.788Z,9.60
2018-07-11T13:57:34.315Z,9.78
2018-07-11T14:00:03.054Z,11.87
2018-07-11T14:02:31.688Z,10.63
2018-07-11T14:05:00.120Z,11.90
2018-07-11T14:07:28.508Z,10.57
2018-07-11T14:09:57.053Z,11.80
2018-07-11T14:12:25.988Z,10.53
2018-07-11T14:14:54.649Z,9.90
2018-07-11T14:17:24.264Z,9.48
2018-07-11T14:19:52.904Z,7.57
2018-07-11T14:22:21.024Z,7.93
2018-07-11T14:24:49.342Z,8.90
2018-07-11T14:27:18.415Z,9.40
2018-07-11T14:29:46.919Z,8.80
2018-07-11T14:32:15.486Z,7.40
2018-07-11T14:34:43.808Z,8.33
2018-07-11T14:37:11.908Z,6.90
2018-07-11T14:39:40.292Z,6.57
2018-07-11T14:42:08.761Z,5.63
2018-07-11T14:44:37.348Z,5.30
2018-07-11T14:47:09.920Z,5.43
2018-07-11T14:49:38.300Z,6.60
2018-07-11T14:52:07.089Z,5.93
2018-07-11T14:54:35.976Z,6.03
2018-07-11T14:57:04.355Z,5.77
2018-07-11T14:59:32.958Z,6.00
2018-07-11T15:02:01.593Z,5.90
2018-07-11T15:04:29.933Z,5.07
2018-07-11T15:06:58.216Z,5.13
2018-07-11T15:09:26.816Z,5.97
2018-07-11T15:11:55.261Z,5.33
2018-07-11T15:14:24.156Z,6.00
2018-07-11T15:16:52.280Z,5.87
2018-07-11T15:19:20.986Z,5.73
2018-07-11T15:21:49.320Z,5.67
2018-07-11T15:24:18.153Z,5.57
2018-07-11T15:26:46.844Z,5.00
2018-07-11T15:29:15.200Z,5.60
2018-07-11T15:31:43.544Z,6.33
2018-07-11T15:34:12.251Z,5.40
2018-07-11T15:36:41.149Z,5.20
2018-07-11T15:39:12.512Z,5.50
2018-07-11T15:41:41.125Z,4.73
2018-07-11T15:44:09.796Z,4.97
2018-07-11T15:46:38.249Z,5.07
2018-07-11T15:49:06.689Z,4.93
2018-07-11T15:51:35.504Z,4.60
2018-07-11T15:54:03.897Z,4.90
2018-07-11T15:56:32.410Z,5.33
2018-07-11T15:59:05.415Z,5.70
2018-07-11T16:01:37.328Z,4.53
2018-07-11T16:04:05.667Z,6.00
2018-07-11T16:06:34.295Z,6.00
2018-07-11T16:09:05.005Z,6.67
2018-07-11T16:11:33.589Z,6.70
2018-07-11T16:14:02.060Z,7.97
2018-07-11T16:16:30.404Z,6.87
2018-07-11T16:18:59.093Z,6.70
2018-07-11T16:21:27.798Z,6.67
2018-07-11T16:23:56.135Z,6.30
2018-07-11T16:26:24.409Z,8.60
2018-07-11T16:28:53.144Z,5.77
2018-07-11T16:31:21.504Z,7.77
2018-07-11T16:33:49.941Z,6.80
2018-07-11T16:36:18.025Z,6.90
2018-07-11T16:38:46.376Z,6.50
2018-07-11T16:41:14.736Z,6.10
2018-07-11T16:43:42.895Z,6.40
2018-07-11T16:46:11.583Z,6.60
2018-07-11T16:48:40.889Z,5.95
2018-07-11T16:51:09.204Z,6.00
2018-07-11T16:53:38.881Z,5.83
2018-07-11T16:56:07.468Z,5.07
2018-07-11T16:58:41.403Z,6.08
2018-07-11T17:01:09.760Z,5.93
2018-07-11T17:03:40.585Z,5.65
2018-07-11T17:06:09.661Z,4.93
2018-07-11T17:08:43.818Z,6.50
2018-07-11T17:11:18.032Z,6.20
2018-07-11T17:13:52.952Z,5.47
2018-07-11T17:16:24.204Z,6.63
2018-07-11T17:18:56.220Z,7.43
2018-07-11T17:21:30.323Z,6.00
2018-07-11T17:24:03.887Z,8.10
2018-07-11T17:26:32.529Z,6.30
2018-07-11T17:29:01.371Z,7.00
2018-07-11T17:31:30.120Z,6.90
2018-07-11T17:33:58.935Z,7.63
2018-07-11T17:36:29.821Z,7.33
2018-07-11T17:38:58.164Z,7.40
2018-07-11T17:41:26.657Z,6.83
2018-07-11T17:43:55.380Z,6.63
2018-07-11T17:46:24.984Z,7.10
2018-07-11T17:49:06.201Z,7.67
2018-07-11T17:51:45.932Z,7.33
2018-07-11T17:54:14.132Z,7.40
2018-07-11T17:56:48.099Z,6.97
2018-07-11T17:59:16.268Z,6.90
2018-07-11T18:01:50.531Z,7.17
2018-07-11T18:04:30.680Z,6.92
2018-07-11T18:07:03.084Z,6.63
2018-07-11T18:09:39.600Z,6.47
2018-07-11T18:12:15.287Z,5.53
2018-07-11T18:16:58.952Z,5.43
2018-07-11T18:20:38.696Z,5.50
2018-07-11T18:23:19.658Z,6.10
2018-07-11T18:26:00.952Z,5.40
2018-07-11T18:28:40.232Z,5.95
2018-07-11T18:31:19.634Z,6.40
2018-07-11T18:35:31.131Z,5.83
2018-07-11T18:38:14.184Z,5.60
2018-07-11T18:40:53.542Z,5.97
2018-07-11T18:43:32.948Z,6.60
2018-07-11T18:46:17.158Z,6.00
2018-07-11T18:50:59.389Z,7.37
2018-07-11T18:53:50.340Z,7.20
2018-07-11T18:58:33.439Z,7.03
2018-07-11T19:01:09.536Z,7.23
2018-07-11T19:03:44.824Z,7.77
2018-07-11T19:07:19.568Z,7.43
2018-07-11T19:09:51.203Z,7.90
2018-07-11T19:12:27.072Z,8.73
2018-07-11T19:15:11.175Z,8.27
2018-07-11T19:17:55.749Z,7.40
2018-07-11T19:20:31.283Z,8.75
2018-07-11T19:23:11.448Z,8.47
2018-07-11T19:25:51.456Z,7.60
2018-07-11T19:29:01.869Z,8.03
2018-07-11T19:31:41.380Z,7.95
2018-07-11T19:34:20.024Z,7.47
2018-07-11T19:37:02.233Z,7.53
2018-07-11T19:41:50.860Z,8.53
2018-07-11T19:44:30.715Z,8.10
2018-07-11T19:48:36.500Z,8.30
2018-07-11T19:53:27.681Z,8.27
2018-07-11T19:56:05.753Z,7.80
2018-07-11T19:58:34.088Z,8.97
2018-07-11T20:01:02.493Z,7.83
2018-07-11T20:03:32.968Z,8.78
2018-07-11T20:06:01.289Z,8.90
2018-07-11T20:08:30.130Z,7.50
2018-07-11T20:10:58.425Z,9.20
2018-07-11T20:13:26.940Z,7.73
2018-07-11T20:15:55.594Z,9.10
2018-07-11T20:18:25.352Z,9.88
2018-07-11T20:20:53.827Z,9.33
2018-07-11T20:23:22.562Z,8.97
2018-07-11T20:25:51.519Z,9.77
2018-07-11T20:28:20.120Z,11.23
2018-07-11T20:30:49.398Z,10.10
2018-07-11T20:33:17.757Z,9.33
2018-07-11T20:35:46.184Z,10.20
2018-07-11T20:38:15.552Z,10.37
2018-07-11T20:40:43.888Z,10.00
2018-07-11T20:43:12.217Z,11.43
2018-07-11T20:45:49.649Z,11.18
2018-07-11T20:48:17.760Z,10.10
2018-07-11T20:50:46.057Z,10.40
2018-07-11T20:53:14.912Z,9.90
2018-07-11T20:55:43.564Z,10.20
2018-07-11T20:58:23.247Z,11.20
2018-07-11T21:03:12.109Z,10.17
2018-07-11T21:05:55.209Z,11.75
2018-07-11T21:08:34.923Z,11.80
2018-07-11T21:11:16.811Z,12.73
2018-07-11T21:15:59.578Z,12.40
2018-07-11T21:18:39.088Z,11.93
2018-07-11T21:21:07.542Z,11.50
2018-07-11T21:23:36.214Z,12.30
2018-07-11T21:26:05.114Z,12.40
2018-07-11T21:28:33.511Z,12.28
2018-07-11T21:31:01.652Z,12.20
2018-07-11T21:33:29.944Z,11.87
2018-07-11T21:35:58.471Z,13.98
2018-07-11T21:38:26.892Z,12.00
2018-07-11T21:40:55.567Z,10.70
2018-07-11T21:43:26.292Z,12.60
2018-07-11T21:45:54.852Z,13.07
2018-07-11T21:48:23.298Z,14.10
2018-07-11T21:50:52.051Z,14.60
2018-07-11T21:53:20.308Z,14.97
2018-07-11T21:55:48.726Z,13.23
2018-07-11T21:58:17.177Z,14.43
2018-07-11T22:00:45.725Z,16.10
2018-07-11T22:03:13.846Z,18.53
2018-07-11T22:05:42.307Z,15.90
2018-07-11T22:08:10.804Z,15.17
2018-07-11T22:10:39.915Z,13.30
2018-07-11T22:13:08.431Z,13.40
2018-07-11T22:15:37.108Z,15.45
2018-07-11T22:18:17.023Z,16.20
2018-07-11T22:20:44.377Z,16.93
2018-07-11T22:23:11.877Z,15.33
2018-07-11T22:25:39.369Z,15.78
2018-07-11T22:28:06.823Z,17.67
2018-07-11T22:30:34.115Z,17.10
2018-07-11T22:33:01.281Z,16.60
2018-07-11T22:35:28.428Z,18.40
2018-07-11T22:37:55.827Z,19.03
2018-07-11T22:40:24.195Z,17.25
2018-07-11T22:42:51.355Z,19.53
2018-07-11T22:45:18.757Z,20.60
2018-07-11T22:47:45.959Z,20.33
2018-07-11T22:50:13.124Z,20.03
2018-07-11T22:52:40.354Z,22.97
2018-07-11T22:55:07.944Z,21.30
2018-07-11T22:57:35.132Z,20.20
2018-07-11T23:00:02.295Z,19.63
2018-07-11T23:02:29.736Z,18.07
2018-07-11T23:04:57.227Z,19.17
2018-07-11T23:07:24.383Z,18.27
2018-07-11T23:09:51.964Z,16.60
2018-07-11T23:12:19.304Z,19.77
2018-07-11T23:14:46.764Z,16.90
2018-07-11T23:17:14.035Z,17.87
2018-07-11T23:19:41.185Z,17.33
2018-07-11T23:22:08.351Z,15.77
2018-07-11T23:24:36.026Z,18.00
2018-07-11T23:27:03.177Z,17.67
2018-07-11T23:29:30.732Z,18.50
2018-07-11T23:31:58.099Z,18.73
2018-07-11T23:34:25.319Z,19.23
2018-07-11T23:36:52.944Z,18.07
2018-07-11T23:39:20.111Z,18.17
2018-07-11T23:41:47.269Z,23.93
2018-07-11T23:44:14.455Z,22.33
2018-07-11T23:46:41.896Z,22.82
2018-07-11T23:49:09.071Z,31.73
2018-07-11T23:51:36.248Z,31.23
2018-07-11T23:54:03.415Z,32.40
2018-07-11T23:56:30.876Z,30.50
2018-07-11T23:58:58.184Z,32.03
